createdAt,value
2018-01-02T00:01:18.226Z,5.17
2018-01-02T00:03:44.862Z,5.05
2018-01-02T00:06:11.619Z,5.09
2018-01-02T00:08:39.276Z,4.84
2018-01-02T00:11:05.903Z,4.66
2018-01-02T00:13:32.586Z,4.65
2018-01-02T00:15:59.244Z,4.75
2018-01-02T00:18:25.891Z,4.84
2018-01-02T00:20:52.556Z,4.84
2018-01-02T00:23:19.976Z,4.84
2018-01-02T00:25:46.623Z,4.77
2018-01-02T00:28:13.492Z,4.78
2018-01-02T00:30:40.148Z,4.58
2018-01-02T00:33:07.526Z,4.61
2018-01-02T00:35:35.116Z,4.38
2018-01-02T00:38:01.777Z,4.47
2018-01-02T00:40:28.466Z,4.55
2018-01-02T00:42:56.736Z,4.32
2018-01-02T00:45:24.171Z,4.22
2018-01-02T00:47:51.641Z,4.09
2018-01-02T00:50:18.346Z,4.14
2018-01-02T00:52:45.010Z,4.19
2018-01-02T00:55:11.663Z,4.18
2018-01-02T00:57:38.357Z,4.15
2018-01-02T01:00:05.015Z,4.10
2018-01-02T01:02:31.710Z,4.06
2018-01-02T01:04:59.136Z,3.92
2018-01-02T01:07:25.822Z,3.91
2018-01-02T01:09:53.228Z,3.80
2018-01-02T01:12:19.880Z,3.73
2018-01-02T01:14:46.549Z,3.74
2018-01-02T01:17:13.208Z,3.72
2018-01-02T01:19:40.629Z,3.73
2018-01-02T01:22:07.325Z,3.82
2018-01-02T01:24:34.006Z,3.73
2018-01-02T01:27:00.686Z,3.50
2018-01-02T01:29:28.104Z,3.52
2018-01-02T01:31:55.585Z,3.71
2018-01-02T01:34:22.321Z,3.90
2018-01-02T01:36:49.766Z,3.94
2018-01-02T01:39:16.422Z,4.14
2018-01-02T01:41:43.108Z,4.06
2018-01-02T01:44:10.505Z,4.18
2018-01-02T01:46:37.185Z,4.05
2018-01-02T01:49:03.840Z,4.05
2018-01-02T01:51:30.468Z,4.20
2018-01-02T01:53:57.189Z,4.35
2018-01-02T01:56:24.807Z,4.36
2018-01-02T01:58:52.199Z,4.29
2018-01-02T02:01:18.988Z,4.22
2018-01-02T02:03:45.642Z,4.09
2018-01-02T02:06:12.335Z,4.02
2018-01-02T02:08:39.024Z,4.20
2018-01-02T02:11:05.653Z,4.31
2018-01-02T02:13:32.322Z,4.24
2018-01-02T02:15:59.736Z,4.19
2018-01-02T02:18:26.390Z,4.15
2018-01-02T02:20:53.039Z,3.74
2018-01-02T02:23:19.816Z,3.70
2018-01-02T02:25:47.207Z,3.66
2018-01-02T02:28:14.692Z,3.66
2018-01-02T02:30:41.386Z,3.73
2018-01-02T02:33:08.053Z,3.78
2018-01-02T02:35:34.730Z,3.70
2018-01-02T02:38:01.395Z,3.51
2018-01-02T02:40:34.968Z,3.34
2018-01-02T02:43:01.660Z,3.36
2018-01-02T02:45:29.049Z,3.45
2018-01-02T02:47:55.733Z,3.42
2018-01-02T02:50:22.395Z,3.37
2018-01-02T02:52:49.803Z,3.25
2018-01-02T02:55:16.476Z,3.21
2018-01-02T02:57:43.112Z,3.37
2018-01-02T03:00:09.766Z,3.35
2018-01-02T03:02:36.456Z,3.42
2018-01-02T03:05:03.102Z,3.52
2018-01-02T03:07:29.767Z,3.52
2018-01-02T03:09:56.440Z,3.46
2018-01-02T03:12:23.901Z,3.51
2018-01-02T03:14:50.550Z,3.26
2018-01-02T03:17:18.935Z,3.37
2018-01-02T03:19:46.349Z,3.32
2018-01-02T03:22:13.002Z,3.43
2018-01-02T03:24:39.709Z,3.29
2018-01-02T03:27:06.372Z,3.26
2018-01-02T03:29:33.010Z,3.31
2018-01-02T03:31:59.718Z,3.27
2018-01-02T03:34:27.954Z,3.30
2018-01-02T03:36:54.626Z,3.11
2018-01-02T03:39:22.062Z,3.07
2018-01-02T03:41:48.726Z,3.12
2018-01-02T03:44:15.415Z,3.17
2018-01-02T03:46:42.093Z,3.17
2018-01-02T03:49:08.792Z,3.02
2018-01-02T03:51:35.449Z,3.05
2018-01-02T03:54:02.130Z,3.07
2018-01-02T03:56:28.784Z,3.08
2018-01-02T03:58:56.178Z,3.11
2018-01-02T04:01:23.919Z,2.93
2018-01-02T04:03:51.303Z,2.73
2018-01-02T04:06:17.942Z,2.67
2018-01-02T04:08:45.238Z,2.78
2018-01-02T04:11:12.634Z,2.75
2018-01-02T04:13:40.038Z,2.86
2018-01-02T04:16:06.705Z,2.79
2018-01-02T04:18:34.092Z,2.78
2018-01-02T04:21:00.804Z,2.59
2018-01-02T04:23:27.427Z,2.45
2018-01-02T04:25:54.078Z,2.20
2018-01-02T04:28:20.740Z,2.44
2018-01-02T04:30:47.374Z,2.39
2018-01-02T04:33:14.010Z,2.45
2018-01-02T04:35:40.689Z,2.43
2018-01-02T04:38:08.377Z,2.63
2018-01-02T04:40:35.122Z,2.67
2018-01-02T04:43:02.136Z,2.55
2018-01-02T04:45:28.769Z,2.59
2018-01-02T04:47:55.445Z,2.37
2018-01-02T04:50:22.192Z,2.29
2018-01-02T04:52:49.594Z,2.09
2018-01-02T04:55:16.262Z,2.03
2018-01-02T04:57:42.893Z,1.96
2018-01-02T05:00:09.544Z,1.96
2018-01-02T05:02:36.926Z,2.04
2018-01-02T05:05:04.337Z,2.14
2018-01-02T05:07:31.040Z,1.96
2018-01-02T05:09:58.484Z,1.97
2018-01-02T05:12:25.907Z,2.00
2018-01-02T05:14:52.592Z,2.12
2018-01-02T05:17:19.216Z,2.10
2018-01-02T05:19:45.912Z,2.19
2018-01-02T05:22:12.540Z,2.23
2018-01-02T05:24:39.934Z,2.27
2018-01-02T05:27:06.608Z,2.31
2018-01-02T05:29:33.267Z,2.09
2018-01-02T05:32:00.664Z,2.01
2018-01-02T05:34:27.330Z,1.88
2018-01-02T05:36:53.976Z,1.69
2018-01-02T05:39:20.648Z,1.58
2018-01-02T05:41:47.366Z,1.52
2018-01-02T05:44:14.036Z,1.47
2018-01-02T05:46:41.448Z,1.63
2018-01-02T05:49:08.214Z,1.72
2018-01-02T05:51:35.633Z,1.75
2018-01-02T05:54:02.337Z,1.27
2018-01-02T05:56:28.996Z,1.34
2018-01-02T05:58:56.390Z,1.62
2018-01-02T06:01:23.055Z,1.73
2018-01-02T06:03:49.712Z,1.53
2018-01-02T06:06:16.361Z,1.67
2018-01-02T06:08:43.025Z,1.58
2018-01-02T06:11:10.409Z,1.37
2018-01-02T06:13:37.058Z,1.62
2018-01-02T06:16:03.735Z,1.67
2018-01-02T06:18:30.405Z,1.51
2018-01-02T06:20:57.084Z,1.66
2018-01-02T06:23:23.763Z,1.66
2018-01-02T06:25:50.410Z,1.49
2018-01-02T06:28:17.107Z,1.48
2018-01-02T06:30:43.746Z,1.66
2018-01-02T06:33:10.441Z,1.76
2018-01-02T06:35:37.099Z,1.74
2018-01-02T06:38:04.508Z,1.81
2018-01-02T06:40:32.021Z,1.76
2018-01-02T06:42:59.453Z,1.77
2018-01-02T06:45:26.100Z,1.66
2018-01-02T06:47:52.748Z,1.57
2018-01-02T06:50:19.462Z,1.49
2018-01-02T06:52:47.003Z,1.47
2018-01-02T06:55:13.670Z,1.71
2018-01-02T06:57:40.312Z,1.60
2018-01-02T07:00:07.048Z,1.80
2018-01-02T07:02:33.693Z,1.86
2018-01-02T07:05:00.362Z,1.97
2018-01-02T07:07:27.916Z,1.97
2018-01-02T07:09:54.563Z,1.80
2018-01-02T07:12:21.210Z,1.81
2018-01-02T07:14:47.898Z,1.95
2018-01-02T07:17:14.542Z,1.78
2018-01-02T07:19:41.186Z,1.81
2018-01-02T07:22:07.879Z,1.95
2018-01-02T07:24:34.522Z,1.96
2018-01-02T07:27:01.973Z,1.81
2018-01-02T07:29:28.644Z,1.64
2018-01-02T07:31:55.314Z,1.46
2018-01-02T07:34:22.741Z,1.78
2018-01-02T07:36:49.466Z,2.05
2018-01-02T07:39:16.146Z,2.13
2018-01-02T07:41:43.576Z,2.31
2018-01-02T07:44:10.247Z,2.32
2018-01-02T07:46:37.040Z,2.26
2018-01-02T07:49:03.681Z,2.06
2018-01-02T07:51:30.361Z,1.95
2018-01-02T07:53:57.033Z,2.15
2018-01-02T07:56:24.463Z,2.11
2018-01-02T07:58:51.146Z,2.14
2018-01-02T08:01:17.841Z,2.09
2018-01-02T08:03:44.521Z,2.07
2018-01-02T08:06:11.957Z,2.27
2018-01-02T08:08:38.617Z,2.21
2018-01-02T08:11:06.040Z,2.08
2018-01-02T08:13:33.566Z,2.18
2018-01-02T08:16:00.251Z,2.19
2018-01-02T08:18:26.896Z,2.57
2018-01-02T08:20:53.578Z,2.23
2018-01-02T08:23:20.968Z,2.56
2018-01-02T08:25:47.599Z,2.54
2018-01-02T08:28:14.285Z,2.69
2018-01-02T08:30:40.958Z,2.70
2018-01-02T08:33:08.376Z,2.52
2018-01-02T08:35:35.830Z,2.47
2018-01-02T08:38:02.510Z,2.78
2018-01-02T08:40:29.915Z,2.70
2018-01-02T08:42:56.607Z,3.05
2018-01-02T08:45:23.284Z,3.27
2018-01-02T08:47:49.912Z,3.35
2018-01-02T08:50:17.326Z,3.17
2018-01-02T08:52:44.007Z,3.57
2018-01-02T08:55:11.393Z,3.62
2018-01-02T08:57:38.060Z,3.63
2018-01-02T09:00:04.709Z,3.72
2018-01-02T09:02:31.364Z,3.62
2018-01-02T09:04:58.074Z,3.63
2018-01-02T09:07:24.705Z,3.74
2018-01-02T09:09:51.411Z,3.63
2018-01-02T09:12:23.986Z,4.02
2018-01-02T09:14:50.648Z,4.04
2018-01-02T09:17:17.326Z,3.95
2018-01-02T09:19:43.991Z,3.83
2018-01-02T09:22:10.643Z,4.38
2018-01-02T09:24:37.328Z,4.63
2018-01-02T09:27:04.037Z,4.47
2018-01-02T09:29:30.704Z,4.84
2018-01-02T09:31:58.189Z,5.06
2018-01-02T09:34:24.850Z,5.13
2018-01-02T09:36:51.512Z,5.46
2018-01-02T09:39:18.214Z,5.65
2018-01-02T09:41:44.958Z,5.78
2018-01-02T09:44:11.638Z,5.51
2018-01-02T09:46:38.292Z,5.32
2018-01-02T09:49:04.997Z,5.13
2018-01-02T09:51:31.747Z,5.26
2018-01-02T09:53:58.452Z,5.03
2018-01-02T09:56:25.894Z,5.12
2018-01-02T09:58:52.570Z,5.48
2018-01-02T10:01:19.322Z,5.49
2018-01-02T10:03:46.024Z,5.66
2018-01-02T10:06:12.726Z,5.13
2018-01-02T10:08:39.403Z,5.31
2018-01-02T10:11:06.148Z,5.49
2018-01-02T10:13:32.809Z,5.21
2018-01-02T10:15:59.491Z,5.61
2018-01-02T10:18:26.189Z,5.75
2018-01-02T10:20:52.889Z,5.67
2018-01-02T10:23:19.555Z,5.37
2018-01-02T10:25:46.293Z,5.32
2018-01-02T10:28:12.927Z,5.19
2018-01-02T10:30:39.679Z,5.17
2018-01-02T10:33:06.373Z,5.35
2018-01-02T10:35:33.054Z,5.20
2018-01-02T10:37:59.771Z,5.39
2018-01-02T10:40:26.462Z,5.53
2018-01-02T10:42:53.106Z,5.66
2018-01-02T10:45:19.792Z,5.69
2018-01-02T10:47:46.464Z,5.64
2018-01-02T10:50:20.025Z,5.51
2018-01-02T10:52:47.489Z,5.52
2018-01-02T10:55:14.922Z,5.62
2018-01-02T10:57:41.583Z,5.28
2018-01-02T11:00:09.934Z,5.44
2018-01-02T11:02:36.936Z,5.06
2018-01-02T11:05:03.640Z,4.75
2018-01-02T11:07:30.909Z,4.83
2018-01-02T11:09:57.638Z,5.17
2018-01-02T11:12:30.391Z,5.19
2018-01-02T11:14:57.137Z,5.23
2018-01-02T11:17:23.810Z,5.45
2018-01-02T11:19:50.524Z,5.89
2018-01-02T11:22:17.202Z,5.98
2018-01-02T11:24:44.667Z,6.16
2018-01-02T11:27:11.738Z,6.04
2018-01-02T11:29:39.184Z,6.05
2018-01-02T11:32:06.599Z,6.30
2018-01-02T11:34:34.042Z,6.38
2018-01-02T11:37:00.698Z,6.23
2018-01-02T11:39:27.372Z,6.88
2018-01-02T11:41:54.041Z,7.05
2018-01-02T11:44:21.463Z,7.18
2018-01-02T11:46:48.906Z,7.13
2018-01-02T11:49:15.829Z,7.37
2018-01-02T11:51:42.505Z,7.22
2018-01-02T11:54:09.211Z,7.44
2018-01-02T11:56:35.906Z,7.22
2018-01-02T11:59:02.628Z,7.17
2018-01-02T12:01:29.349Z,7.52
2018-01-02T12:03:56.023Z,7.79
2018-01-02T12:06:22.681Z,7.77
2018-01-02T12:08:49.374Z,7.79
2018-01-02T12:11:16.036Z,7.92
2018-01-02T12:13:42.720Z,8.12
2018-01-02T12:16:09.437Z,8.37
2018-01-02T12:18:36.120Z,8.51
2018-01-02T12:21:03.531Z,8.39
2018-01-02T12:23:30.556Z,8.60
2018-01-02T12:25:57.577Z,7.84
2018-01-02T12:28:24.247Z,8.53
2018-01-02T12:30:50.952Z,8.64
2018-01-02T12:33:17.642Z,8.79
2018-01-02T12:35:44.309Z,8.97
2018-01-02T12:38:11.789Z,9.02
2018-01-02T12:40:38.502Z,9.17
2018-01-02T12:43:05.162Z,9.26
2018-01-02T12:45:31.856Z,8.85
2018-01-02T12:47:59.347Z,9.30
2018-01-02T12:50:26.090Z,8.73
2018-01-02T12:52:52.741Z,8.79
2018-01-02T12:55:19.437Z,8.65
2018-01-02T12:57:47.044Z,8.50
2018-01-02T13:00:14.226Z,8.39
2018-01-02T13:02:40.869Z,7.84
2018-01-02T13:05:07.529Z,8.08
2018-01-02T13:07:34.261Z,8.22
2018-01-02T13:10:00.954Z,7.83
2018-01-02T13:12:27.605Z,8.04
2018-01-02T13:14:54.290Z,8.42
2018-01-02T13:17:20.973Z,8.53
2018-01-02T13:19:47.625Z,8.43
2018-01-02T13:22:14.314Z,7.90
2018-01-02T13:24:41.010Z,7.54
2018-01-02T13:27:07.663Z,7.55
2018-01-02T13:29:34.382Z,7.64
2018-01-02T13:32:01.782Z,7.53
2018-01-02T13:34:28.527Z,7.53
2018-01-02T13:36:55.207Z,7.28
2018-01-02T13:39:21.861Z,7.15
2018-01-02T13:41:50.204Z,6.94
2018-01-02T13:44:16.852Z,6.32
2018-01-02T13:46:43.510Z,6.70
2018-01-02T13:49:10.226Z,6.86
2018-01-02T13:51:36.899Z,7.01
2018-01-02T13:54:03.582Z,6.74
2018-01-02T13:56:30.241Z,6.77
2018-01-02T13:58:57.007Z,7.00
2018-01-02T14:01:23.669Z,6.90
2018-01-02T14:03:50.398Z,7.00
2018-01-02T14:06:17.102Z,6.99
2018-01-02T14:08:43.792Z,6.71
2018-01-02T14:11:10.645Z,6.86
2018-01-02T14:13:37.317Z,6.81
2018-01-02T14:16:04.739Z,6.82
2018-01-02T14:18:31.449Z,6.66
2018-01-02T14:20:58.121Z,6.42
2018-01-02T14:23:24.796Z,6.44
2018-01-02T14:25:52.207Z,6.56
2018-01-02T14:28:18.859Z,6.42
2018-01-02T14:30:45.553Z,6.60
2018-01-02T14:33:12.975Z,6.53
2018-01-02T14:35:39.641Z,6.23
2018-01-02T14:38:06.370Z,6.42
2018-01-02T14:40:33.064Z,6.41
2018-01-02T14:42:59.742Z,6.28
2018-01-02T14:45:26.393Z,6.32
2018-01-02T14:47:53.053Z,6.37
2018-01-02T14:50:19.768Z,6.42
2018-01-02T14:52:46.422Z,6.41
2018-01-02T14:55:13.068Z,6.15
2018-01-02T14:57:39.810Z,6.05
2018-01-02T15:00:06.525Z,5.88
2018-01-02T15:02:33.250Z,5.94
2018-01-02T15:04:59.917Z,6.01
2018-01-02T15:07:26.614Z,5.95
2018-01-02T15:09:54.074Z,5.91
2018-01-02T15:12:21.531Z,5.64
2018-01-02T15:14:48.915Z,5.50
2018-01-02T15:17:15.662Z,5.46
2018-01-02T15:19:42.336Z,5.31
2018-01-02T15:22:09.076Z,5.25
2018-01-02T15:24:35.748Z,5.26
2018-01-02T15:27:02.398Z,5.08
2018-01-02T15:29:29.058Z,5.03
2018-01-02T15:31:56.497Z,5.07
2018-01-02T15:34:23.824Z,5.00
2018-01-02T15:36:50.584Z,4.98
2018-01-02T15:39:18.043Z,4.78
2018-01-02T15:41:44.722Z,4.71
2018-01-02T15:44:11.385Z,4.61
2018-01-02T15:46:39.039Z,4.58
2018-01-02T15:49:06.435Z,4.31
2018-01-02T15:51:33.180Z,4.11
2018-01-02T15:53:59.899Z,4.20
2018-01-02T15:56:26.550Z,4.19
2018-01-02T15:58:53.207Z,4.22
2018-01-02T16:01:19.909Z,3.98
2018-01-02T16:03:47.334Z,4.05
2018-01-02T16:06:14.993Z,4.14
2018-01-02T16:08:41.666Z,4.05
2018-01-02T16:11:09.052Z,4.01
2018-01-02T16:13:35.706Z,3.97
2018-01-02T16:16:02.782Z,3.76
2018-01-02T16:18:29.440Z,3.57
2018-01-02T16:20:56.080Z,3.65
2018-01-02T16:23:22.758Z,3.64
2018-01-02T16:25:50.145Z,3.41
2018-01-02T16:28:16.818Z,3.23
2018-01-02T16:30:43.597Z,3.33
2018-01-02T16:33:10.997Z,3.28
2018-01-02T16:35:37.665Z,3.31
2018-01-02T16:38:04.332Z,3.42
2018-01-02T16:40:30.981Z,3.42
2018-01-02T16:42:57.654Z,3.39
2018-01-02T16:45:24.350Z,3.41
2018-01-02T16:47:51.011Z,3.40
2018-01-02T16:50:18.490Z,3.19
2018-01-02T16:52:45.180Z,3.19
2018-01-02T16:55:12.611Z,3.06
2018-01-02T16:57:39.277Z,2.81
2018-01-02T17:00:06.845Z,2.86
2018-01-02T17:02:33.499Z,2.79
2018-01-02T17:05:00.188Z,2.66
2018-01-02T17:07:27.592Z,2.83
2018-01-02T17:09:54.238Z,2.98
2018-01-02T17:12:21.284Z,2.64
2018-01-02T17:14:47.953Z,2.77
2018-01-02T17:17:14.750Z,2.82
2018-01-02T17:19:41.380Z,2.83
2018-01-02T17:22:08.082Z,2.81
2018-01-02T17:24:34.758Z,2.68
2018-01-02T17:27:01.404Z,2.77
2018-01-02T17:29:28.093Z,2.86
2018-01-02T17:31:54.737Z,2.75
2018-01-02T17:34:21.681Z,2.81
2018-01-02T17:36:48.389Z,2.84
2018-01-02T17:39:15.090Z,2.87
2018-01-02T17:41:41.737Z,2.70
2018-01-02T17:44:08.411Z,2.77
2018-01-02T17:46:35.064Z,2.55
2018-01-02T17:49:01.730Z,2.59
2018-01-02T17:51:28.391Z,2.78
2018-01-02T17:53:55.080Z,2.67
2018-01-02T17:56:21.748Z,2.69
2018-01-02T17:58:48.428Z,2.73
2018-01-02T18:01:15.110Z,2.81
2018-01-02T18:03:41.783Z,2.86
2018-01-02T18:06:08.498Z,2.73
2018-01-02T18:08:35.178Z,2.80
2018-01-02T18:11:01.856Z,2.75
2018-01-02T18:13:29.340Z,2.77
2018-01-02T18:15:56.011Z,2.73
2018-01-02T18:18:22.690Z,2.65
2018-01-02T18:20:49.367Z,2.46
2018-01-02T18:23:16.863Z,2.10
2018-01-02T18:25:43.828Z,2.17
2018-01-02T18:28:11.541Z,2.27
2018-01-02T18:30:39.367Z,2.34
2018-01-02T18:33:06.056Z,2.36
2018-01-02T18:35:33.449Z,2.43
2018-01-02T18:38:00.092Z,2.42
2018-01-02T18:40:26.801Z,2.35
2018-01-02T18:42:53.457Z,2.37
2018-01-02T18:45:20.989Z,2.18
2018-01-02T18:47:48.474Z,2.34
2018-01-02T18:50:15.877Z,2.32
2018-01-02T18:52:42.553Z,2.18
2018-01-02T18:55:10.014Z,1.97
2018-01-02T18:57:37.432Z,2.06
2018-01-02T19:00:04.138Z,1.99
2018-01-02T19:02:30.848Z,2.01
2018-01-02T19:04:58.399Z,1.74
2018-01-02T19:07:25.092Z,1.76
2018-01-02T19:09:51.873Z,1.94
2018-01-02T19:12:19.482Z,2.09
2018-01-02T19:14:46.933Z,2.00
2018-01-02T19:17:14.373Z,2.09
2018-01-02T19:19:41.323Z,2.15
2018-01-02T19:22:08.065Z,2.08
2018-01-02T19:24:34.810Z,2.02
2018-01-02T19:27:01.589Z,1.94
2018-01-02T19:29:28.973Z,1.86
2018-01-02T19:31:55.669Z,1.86
2018-01-02T19:34:22.350Z,1.83
2018-01-02T19:36:49.093Z,1.84
2018-01-02T19:39:16.514Z,1.96
2018-01-02T19:41:44.046Z,1.93
2018-01-02T19:44:10.739Z,1.73
2018-01-02T19:46:38.158Z,1.52
2018-01-02T19:49:05.543Z,1.63
2018-01-02T19:51:32.269Z,1.76
2018-01-02T19:53:58.961Z,1.82
2018-01-02T19:56:26.626Z,1.68
2018-01-02T19:58:53.317Z,1.79
2018-01-02T20:01:19.960Z,2.01
2018-01-02T20:03:46.691Z,1.98
2018-01-02T20:06:13.353Z,1.75
2018-01-02T20:08:40.759Z,1.75
2018-01-02T20:11:08.185Z,1.84
2018-01-02T20:13:35.017Z,1.92
2018-01-02T20:16:01.696Z,2.04
2018-01-02T20:18:35.102Z,2.06
2018-01-02T20:21:02.519Z,2.02
2018-01-02T20:23:29.483Z,1.92
2018-01-02T20:25:57.019Z,1.85
2018-01-02T20:28:23.721Z,1.95
2018-01-02T20:30:50.397Z,1.92
2018-01-02T20:33:17.087Z,1.85
2018-01-02T20:35:44.504Z,1.90
2018-01-02T20:38:11.193Z,1.83
2018-01-02T20:40:38.700Z,1.64
2018-01-02T20:43:05.358Z,1.45
2018-01-02T20:45:32.087Z,1.22
2018-01-02T20:47:58.838Z,1.44
2018-01-02T20:50:25.477Z,1.46
2018-01-02T20:52:52.213Z,1.57
2018-01-02T20:55:18.996Z,1.64
2018-01-02T20:57:45.671Z,1.64
2018-01-02T21:00:13.258Z,1.66
2018-01-02T21:02:39.977Z,1.58
2018-01-02T21:05:07.555Z,1.50
2018-01-02T21:07:34.184Z,1.29
2018-01-02T21:10:01.627Z,1.48
2018-01-02T21:12:28.979Z,1.40
2018-01-02T21:14:55.635Z,1.19
2018-01-02T21:17:23.425Z,1.23
2018-01-02T21:19:50.072Z,1.30
2018-01-02T21:22:16.808Z,1.27
2018-01-02T21:24:44.260Z,1.10
2018-01-02T21:27:10.974Z,1.15
2018-01-02T21:29:38.404Z,1.21
2018-01-02T21:32:05.112Z,1.27
2018-01-02T21:34:32.522Z,1.39
2018-01-02T21:36:59.186Z,1.43
2018-01-02T21:39:25.877Z,1.44
2018-01-02T21:41:52.528Z,1.22
2018-01-02T21:44:19.218Z,1.03
2018-01-02T21:46:45.899Z,0.90
2018-01-02T21:49:12.537Z,0.73
2018-01-02T21:51:39.203Z,0.85
2018-01-02T21:54:05.890Z,1.09
2018-01-02T21:56:32.593Z,1.10
2018-01-02T21:58:59.260Z,1.05
2018-01-02T22:01:25.932Z,1.15
2018-01-02T22:03:53.348Z,1.15
2018-01-02T22:06:20.064Z,1.01
2018-01-02T22:08:46.746Z,1.14
2018-01-02T22:11:13.414Z,1.11
2018-01-02T22:13:40.077Z,0.78
2018-01-02T22:16:07.535Z,0.86
2018-01-02T22:18:34.917Z,0.79
2018-01-02T22:21:01.593Z,0.92
2018-01-02T22:23:28.245Z,1.03
2018-01-02T22:25:54.898Z,0.65
2018-01-02T22:28:21.611Z,0.60
2018-01-02T22:30:48.769Z,0.45
2018-01-02T22:33:15.515Z,0.68
2018-01-02T22:35:42.236Z,0.70
2018-01-02T22:38:09.066Z,0.71
2018-01-02T22:40:36.447Z,0.63
2018-01-02T22:43:03.088Z,0.53
2018-01-02T22:45:29.761Z,0.63
2018-01-02T22:47:56.499Z,0.59
2018-01-02T22:50:23.344Z,0.60
2018-01-02T22:52:50.020Z,0.46
2018-01-02T22:55:17.475Z,0.29
2018-01-02T22:57:44.147Z,0.29
2018-01-02T23:00:10.933Z,0.58
2018-01-02T23:02:37.617Z,0.38
2018-01-02T23:05:05.025Z,0.48
2018-01-02T23:07:31.682Z,0.55
2018-01-02T23:09:58.489Z,0.57
2018-01-02T23:12:25.226Z,0.26
2018-01-02T23:14:51.921Z,0.12
2018-01-02T23:17:18.699Z,0.30
2018-01-02T23:19:46.078Z,0.46
2018-01-02T23:22:12.884Z,0.40
2018-01-02T23:24:39.672Z,0.36
2018-01-02T23:27:06.408Z,0.52
2018-01-02T23:29:33.210Z,0.53
2018-01-02T23:31:59.967Z,0.53
2018-01-02T23:34:26.648Z,0.49
2018-01-02T23:36:53.309Z,0.49
2018-01-02T23:39:19.973Z,0.53
2018-01-02T23:41:46.617Z,0.54
2018-01-02T23:44:13.256Z,0.52
2018-01-02T23:46:40.798Z,0.46
2018-01-02T23:49:07.449Z,0.44
2018-01-02T23:51:34.171Z,0.51
2018-01-02T23:54:00.838Z,0.41
2018-01-02T23:56:27.466Z,0.45
2018-01-02T23:58:54.138Z,0.50
